Latest Weather Observations for Truscott

IDW60801

Issued at 1:03 pm WST Saturday 29 February 2020 (issued every 10 minutes, with the page automatically refreshed every 10 minutes)

About weather observations | Map of weather stations | Latest weather observations for WA | Other Formats
Station Details ID: 001020 Name: TRUSCOTT Lat: -14.09 Lon: 126.39 Height: 51.0 m
Data from the previous 72 hours. | See also: Recent months at Truscott
Date/Time
WST
Temp
°C
App
Temp
°C
Dew
Point
°C
Rel
Hum
%
Delta-T
°C
Wind Press
QNH
hPa
Press
MSL
hPa
Rain since
9am
mm
Dir  Spd
km/h
Gust
km/h
Spd
kts
Gust
kts
29/01:00pm 28.7 31.7 25.3 82 2.4 N 19 30 10 16 1003.6 1003.3 0.2
29/12:53pm 28.7 31.5 25.3 82 2.4 N 20 33 11 18 1003.7 1003.4 0.2
29/12:30pm 29.0 31.8 25.2 80 2.7 N 20 28 11 15 1004.4 1004.0 0.2
29/12:00pm 28.2 32.1 26.0 88 1.6 N 17 24 9 13 1004.7 1004.1 0.2
29/11:57am 28.0 31.7 25.8 88 1.6 N 17 24 9 13 1004.7 1004.3 0.2
29/11:30am 27.7 30.9 24.9 85 2.0 N 17 28 9 15 1004.9 1004.5 0.2
29/11:00am 28.0 30.5 24.4 81 2.5 N 19 26 10 14 1005.1 1004.7 0.2
29/10:30am 27.8 29.5 24.0 80 2.6 N 22 33 12 18 1005.6 1005.2 0.2
29/10:00am 28.6 30.6 24.6 79 2.8 NNW 22 35 12 19 1005.3 1004.9 0.2
29/09:30am 28.2 31.6 24.6 81 2.5 NNW 15 28 8 15 1005.2 1004.8 0.0
29/09:00am 28.6 31.8 25.6 84 2.1 N 19 30 10 16 1005.4 1004.8 42.6
29/08:30am 28.4 31.9 25.4 84 2.1 N 17 26 9 14 1004.9 1004.5 42.6
29/08:00am 28.0 31.9 24.8 83 2.2 N 13 22 7 12 1004.8 1004.4 42.6
29/07:30am 27.3 31.3 25.1 88 1.5 N 13 20 7 11 1004.5 1004.1 42.6
29/07:00am 26.4 29.8 24.6 90 1.3 N 15 28 8 15 1004.0 1003.7 42.6
29/06:45am 26.1 29.1 24.7 92 1.0 NNW 17 26 9 14 1003.7 1003.4 42.6
29/06:34am 26.1 28.4 25.1 94 0.7 N 22 41 12 22 1003.6 1003.3 42.6
29/06:30am 26.4 29.2 25.2 93 0.8 N 20 41 11 22 1003.5 1003.2 42.6
29/06:28am 26.7 30.4 25.8 95 0.6 N 17 41 9 22 1003.5 1003.2 42.6
29/06:15am 26.8 31.4 26.6 99 0.1 N 15 24 8 13 1003.2 1002.9 42.6
29/06:00am 26.6 31.5 26.4 99 0.1 N 13 17 7 9 1002.8 1002.3 42.6
29/05:56am 26.6 31.5 26.4 99 0.1 N 13 22 7 12 1002.7 1002.4 42.6
29/05:30am 26.4 30.9 26.4 100 0.0 N 15 20 8 11 1002.4 1002.1 42.6
29/05:21am 26.3 30.4 26.3 100 0.0 N 17 28 9 15 1002.3 1002.0 42.4
29/05:00am 26.2 30.2 26.2 100 0.0 N 17 28 9 15 1002.1 1001.8 41.8
29/04:41am 26.6 31.2 26.6 100 0.0 NNW 15 26 8 14 1002.1 1001.8 40.6
29/04:30am 26.6 31.2 26.6 100 0.0 NNW 15 22 8 12 1002.0 1001.7 39.6
29/04:07am 27.0 30.0 25.6 92 1.0 NNW 20 32 11 17 1001.8 1001.5 38.2
29/04:00am 27.2 30.1 25.4 90 1.3 NW 20 32 11 17 1001.6 1001.3 38.2
29/03:44am 27.1 30.1 25.3 90 1.3 NNW 19 33 10 18 1001.3 1001.0 38.2
29/03:31am 27.0 29.8 25.0 89 1.4 NNW 19 26 10 14 1001.3 1001.0 38.2
29/03:30am 27.0 29.8 25.0 89 1.4 NNW 19 26 10 14 1001.3 1001.0 38.2
29/03:00am 26.8 29.6 25.2 91 1.1 NNW 20 33 11 18 1001.1 1000.6 38.2
29/02:47am 27.1 29.8 25.7 92 1.0 NNW 22 35 12 19 1001.2 1000.9 38.0
29/02:30am 27.0 30.4 26.1 95 0.6 NNW 20 33 11 18 1000.9 1000.6 38.0
29/02:00am 26.8 30.9 26.3 97 0.4 NW 17 24 9 13 1001.0 1000.7 38.0
29/01:30am 26.6 30.9 26.6 100 0.0 NW 17 28 9 15 1000.8 1000.5 37.4
29/01:00am 26.5 30.7 26.5 100 0.0 NW 17 33 9 18 1000.8 1000.5 36.4
29/12:30am 26.4 30.9 26.4 100 0.0 NNW 15 24 8 13 1000.6 1000.3 35.4
29/12:19am 26.2 30.2 26.2 100 0.0 NNW 17 24 9 13 1000.5 1000.2 35.2
29/12:13am 26.0 29.9 26.0 100 0.0 NNW 17 26 9 14 1000.4 1000.1 35.2
29/12:07am 25.9 29.7 25.9 100 0.0 NNW 17 26 9 14 1000.4 1000.1 35.0
29/12:00am 25.9 29.3 25.9 100 0.0 NNW 19 30 10 16 1000.4 999.9 34.6
 
Date/Time
WST
Temp
°C
App
Temp
°C
Dew
Point
°C
Rel
Hum
%
Delta-T
°C
Wind Press
QNH
hPa
Press
MSL
hPa
Rain since
9am
mm
Dir  Spd
km/h
Gust
km/h
Spd
kts
Gust
kts
28/11:53pm 25.8 29.2 25.8 100 0.0 NNW 19 28 10 15 1000.7 1000.4 34.4
28/11:30pm 25.1 28.4 25.1 100 0.0 NNW 17 30 9 16 1001.3 1001.0 31.4
28/11:22pm 24.9 28.1 24.9 100 0.0 NW 17 30 9 16 1001.4 1001.1 30.4
28/11:07pm 25.7 28.8 25.7 100 0.0 NW 20 43 11 23 1001.5 1001.2 24.2
28/11:06pm 26.0 29.5 26.0 100 0.0 NW 19 30 10 16 1001.5 1001.2 24.0
28/11:00pm 26.0 29.5 26.0 100 0.0 WNW 19 30 10 16 1001.4 1001.1 23.4
28/10:46pm 26.0 28.3 25.7 98 0.2 WNW 24 41 13 22 1001.5 1001.2 22.0
28/10:30pm 27.4 31.3 26.0 92 1.0 NW 17 30 9 16 1001.3 1001.0 21.0
28/10:00pm 27.6 30.1 26.0 91 1.1 NW 24 39 13 21 1001.0 1000.7 21.0
28/09:53pm 27.4 30.9 26.3 94 0.8 NW 20 35 11 19 1000.9 1000.6 21.0
28/09:42pm 27.5 31.6 26.3 93 0.9 NW 17 30 9 16 1000.8 1000.5 21.0
28/09:32pm 27.0 30.1 26.3 96 0.5 NW 22 44 12 24 1000.8 1000.5 21.0
28/09:30pm 27.0 29.7 26.3 96 0.5 NW 24 44 13 24 1000.8 1000.5 21.0
28/09:27pm 27.1 29.8 26.2 95 0.6 NW 24 44 13 24 1000.7 1000.4 21.0
28/09:00pm 27.6 32.7 27.3 98 0.2 NW 15 20 8 11 1000.8 1000.3 19.8
28/08:51pm 27.1 32.4 26.4 96 0.5 NNW 11 19 6 10 1000.6 1000.3 19.8
28/08:30pm 27.7 31.1 25.3 87 1.7 NW 17 32 9 17 1000.4 1000.1 19.8
28/08:25pm 27.8 31.2 25.2 86 1.8 NW 17 30 9 16 1000.4 1000.1 19.8
28/08:00pm 27.8 30.7 25.4 87 1.7 WNW 20 33 11 18 999.9 999.5 19.8
28/07:47pm 27.7 31.1 25.3 87 1.7 WNW 17 26 9 14 999.7 999.3 19.8
28/07:42pm 27.6 31.0 25.2 87 1.7 NW 17 26 9 14 999.6 999.2 19.8
28/07:30pm 27.5 30.7 25.5 89 1.4 NW 19 33 10 18 999.5 999.1 19.8
28/07:24pm 27.5 31.2 25.7 90 1.3 WNW 17 24 9 13 999.5 999.1 19.8
28/07:18pm 27.4 30.9 25.4 89 1.4 NW 17 24 9 13 999.3 998.9 19.8
28/07:00pm 27.4 30.5 25.4 89 1.4 WNW 19 28 10 15 998.8 998.4 19.8
28/06:40pm 27.5 30.0 25.3 88 1.5 WNW 22 39 12 21 998.8 998.4 19.8
28/06:30pm 27.6 30.0 25.2 87 1.7 WNW 22 37 12 20 998.6 998.2 19.8
28/06:22pm 27.4 30.3 25.4 89 1.4 WNW 20 32 11 17 998.6 998.2 19.8
28/06:00pm 27.4 30.2 25.2 88 1.5 NW 20 30 11 16 998.7 998.2 19.8
28/05:30pm 27.3 29.6 25.1 88 1.5 WNW 22 35 12 19 998.4 998.0 19.8
28/05:08pm 27.2 30.3 25.4 90 1.3 NW 19 28 10 15 998.0 997.6 19.8
28/05:00pm 27.2 30.0 25.2 89 1.4 NW 20 32 11 17 997.8 997.4 19.8
28/04:30pm 27.8 30.7 24.4 82 2.4 WNW 17 24 9 13 997.4 997.0 19.8
28/04:00pm 28.3 31.0 24.7 81 2.5 WNW 19 30 10 16 997.0 996.6 19.8
28/03:30pm 27.6 30.9 26.0 91 1.1 WNW 20 33 11 18 996.8 996.4 19.8
28/03:00pm 27.2 30.4 25.8 92 1.0 WNW 20 35 11 19 996.9 996.3 19.8
28/02:40pm 27.5 30.6 25.7 90 1.3 WNW 20 30 11 16 997.2 996.8 19.8
28/02:30pm 27.2 29.9 25.6 91 1.1 WNW 22 30 12 16 997.5 997.1 19.8
28/02:14pm 27.0 31.2 26.5 97 0.4 WNW 17 30 9 16 997.4 997.0 19.8
28/02:00pm 26.8 30.3 26.8 100 0.0 NW 22 35 12 19 997.5 997.1 19.8
28/01:33pm 27.6 31.4 26.7 95 0.6 WNW 20 33 11 18 997.4 997.0 2.8
28/01:30pm 27.6 31.4 26.5 94 0.8 NW 19 33 10 18 997.3 996.9 1.6
28/01:29pm 27.6 31.2 26.4 93 0.9 NW 20 33 11 18 997.3 996.9 1.6
28/01:00pm 28.8 31.6 25.2 81 2.5 WNW 20 37 11 20 998.1 997.7 0.8
28/12:30pm 28.4 30.9 24.8 81 2.5 WNW 20 32 11 17 998.5 998.1 0.8
28/12:00pm 28.0 30.8 25.2 85 2.0 W 20 33 11 18 999.3 998.8 0.8
28/11:30am 27.4 30.1 24.8 86 1.8 W 19 32 10 17 999.8 999.4 0.8
28/11:00am 26.6 30.3 25.2 92 1.0 W 15 24 8 13 1000.3 1000.0 0.8
28/10:54am 26.4 30.1 25.2 93 0.8 W 15 24 8 13 1000.4 1000.1 0.8
28/10:30am 25.7 29.2 25.5 99 0.1 WSW 17 28 9 15 1001.0 1000.7 0.8
28/10:21am 25.7 28.1 25.2 97 0.3 W 22 33 12 18 1001.3 1001.0 0.8
28/10:06am 26.2 29.3 25.7 97 0.4 WSW 20 32 11 17 1001.2 1000.9 0.6
28/10:02am 26.4 29.4 25.5 95 0.6 WSW 20 32 11 17 1001.2 1000.9 0.2
28/10:00am 26.7 30.1 25.8 95 0.6 WSW 19 30 10 16 1001.2 1000.9 0.2
28/09:30am 28.0 33.4 26.6 92 1.0 SW 11 15 6 8 1001.1 1000.8 0.0
28/09:00am 27.5 32.4 26.4 94 0.8 WSW 13 19 7 10 1001.4 1000.9 60.2
28/08:30am 26.4 31.1 26.1 98 0.2 SW 13 22 7 12 1001.5 1001.2 60.2
28/08:29am 26.4 31.1 26.1 98 0.2 WSW 13 22 7 12 1001.5 1001.2 60.2
28/08:21am 26.2 30.4 25.9 98 0.2 SW 15 28 8 15 1001.7 1001.4 60.2
28/08:03am 26.0 30.2 26.0 100 0.0 SW 15 22 8 12 1001.8 1001.5 59.4
28/08:00am 26.2 30.6 26.2 100 0.0 SW 15 22 8 12 1001.9 1001.6 57.4
28/07:57am 26.2 30.2 26.2 100 0.0 SW 17 26 9 14 1001.9 1001.6 54.8
28/07:38am 27.4 31.4 26.2 93 0.9 SW 17 28 9 15 1001.8 1001.5 47.6
28/07:30am 27.9 31.2 25.7 88 1.6 WSW 19 28 10 15 1001.6 1001.3 46.4
28/07:24am 27.8 31.0 25.6 88 1.6 WSW 19 30 10 16 1001.7 1001.4 46.4
28/07:00am 27.3 30.6 25.7 91 1.1 W 19 30 10 16 1001.7 1001.4 46.4
28/06:30am 27.0 30.0 25.2 90 1.3 W 19 30 10 16 1001.5 1001.2 46.4
28/06:25am 27.0 29.8 25.0 89 1.4 W 19 30 10 16 1001.5 1001.2 46.4
28/06:00am 26.8 30.3 25.4 92 1.0 W 17 26 9 14 1001.4 1000.9 46.4
28/05:42am 26.7 30.7 25.1 91 1.1 W 13 20 7 11 1001.4 1001.1 46.4
28/05:30am 26.7 30.4 24.5 88 1.5 WSW 13 20 7 11 1001.5 1001.2 46.4
28/05:00am 26.1 30.3 25.4 96 0.5 W 13 17 7 9 1001.2 1000.9 46.4
28/04:30am 26.0 29.1 24.8 93 0.8 W 17 28 9 15 1001.3 1001.0 46.4
28/04:00am 26.3 29.0 24.7 91 1.1 W 19 26 10 14 1001.7 1001.4 46.4
28/03:36am 26.0 30.1 24.6 92 1.0 WSW 11 19 6 10 1001.7 1001.4 46.4
28/03:30am 26.0 29.9 24.8 93 0.8 W 13 20 7 11 1001.8 1001.5 46.4
28/03:18am 26.0 29.8 25.3 96 0.5 W 15 20 8 11 1001.9 1001.6 46.4
28/03:17am 25.9 29.6 25.2 96 0.5 W 15 20 8 11 1002.0 1001.7 46.4
28/03:00am 25.8 28.8 25.3 97 0.4 WNW 19 28 10 15 1002.1 1001.6 46.4
28/02:30am 25.8 29.4 25.6 99 0.1 W 17 24 9 13 1002.3 1002.0 46.2
28/02:24am 25.7 29.2 25.5 99 0.1 W 17 24 9 13 1002.3 1002.0 46.2
28/02:00am 25.4 28.7 25.1 98 0.2 W 17 24 9 13 1002.1 1001.8 46.2
28/01:30am 25.6 28.3 24.7 95 0.6 WSW 19 26 10 14 1002.9 1002.6 46.2
28/01:00am 26.1 28.8 24.1 89 1.4 SW 17 20 9 11 1003.2 1002.9 46.2
28/12:30am 26.1 29.8 25.1 94 0.7 WSW 15 22 8 12 1003.3 1003.0 46.2
28/12:00am 26.2 29.7 24.8 92 1.0 WSW 15 22 8 12 1003.5 1003.0 46.2
 
Date/Time
WST
Temp
°C
App
Temp
°C
Dew
Point
°C
Rel
Hum
%
Delta-T
°C
Wind Press
QNH
hPa
Press
MSL
hPa
Rain since
9am
mm
Dir  Spd
km/h
Gust
km/h
Spd
kts
Gust
kts
27/11:55pm 26.2 29.4 25.0 93 0.8 WSW 17 28 9 15 1003.5 1003.2 46.2
27/11:43pm 26.1 29.1 25.2 95 0.6 WSW 19 33 10 18 1003.9 1003.6 46.2
27/11:33pm 26.1 29.0 25.1 94 0.7 W 19 28 10 15 1004.0 1003.7 46.2
27/11:30pm 26.1 29.0 25.1 94 0.7 W 19 28 10 15 1004.0 1003.7 46.0
27/11:00pm 26.6 29.1 25.4 93 0.8 W 22 32 12 17 1004.4 1004.0 45.8
27/10:33pm 26.8 31.4 26.5 98 0.2 WNW 15 20 8 11 1004.8 1004.4 45.8
27/10:30pm 26.8 31.0 26.5 98 0.2 WNW 17 26 9 14 1005.0 1004.6 45.4
27/10:00pm 26.4 30.3 25.5 95 0.6 WNW 15 20 8 11 1005.4 1005.0 45.4
27/09:30pm 25.6 30.0 25.6 100 0.0 WNW 13 20 7 11 1005.5 1005.1 45.4
27/09:17pm 25.4 29.3 25.4 100 0.0 NW 15 28 8 15 1005.3 1004.9 45.4
27/09:00pm 25.5 29.8 25.5 100 0.0 W 13 20 7 11 1005.6 1005.0 45.2
27/08:30pm 25.4 29.3 25.4 100 0.0 WNW 15 22 8 12 1005.0 1004.6 40.6
27/08:17pm 25.2 30.5 25.2 100 0.0 SSW 7 17 4 9 1005.4 1005.0 38.6
27/08:00pm 25.1 28.8 25.1 100 0.0 W 15 24 8 13 1004.9 1004.5 37.0
27/07:45pm 24.9 27.9 24.6 98 0.2 W 17 26 9 14 1004.7 1004.3 37.0
27/07:30pm 25.1 28.4 25.1 100 0.0 W 17 24 9 13 1004.9 1004.5 37.0
27/07:16pm 25.1 28.4 25.1 100 0.0 WNW 17 26 9 14 1003.5 1003.2 37.0
27/07:00pm 25.5 29.4 25.5 100 0.0 W 15 24 8 13 1003.8 1003.5 36.4
27/06:30pm 24.8 29.0 24.8 100 0.0 NW 11 15 6 8 1003.7 1003.4 35.0
27/06:29pm 24.8 29.0 24.8 100 0.0 NW 11 19 6 10 1003.8 1003.5 35.0
27/06:00pm 24.8 28.3 24.8 100 0.0 SSE 15 30 8 16 1003.8 1003.3 31.2
27/05:58pm 24.9 27.6 24.7 99 0.1 S 19 30 10 16 1003.9 1003.6 30.6
27/05:46pm 25.0 27.8 25.0 100 0.0 SSW 19 43 10 23 1004.5 1004.1 25.8
27/05:32pm 25.8 27.2 23.5 87 1.6 S 22 48 12 26 1003.8 1003.5 2.8
27/05:30pm 27.8 29.7 23.8 79 2.8 SW 20 35 11 19 1003.3 1003.0 0.0
27/05:26pm 30.3 33.3 26.2 79 2.9 W 22 44 12 24 1002.3 1002.0 0.0
27/05:06pm 30.4 31.9 26.1 78 3.1 W 30 48 16 26 1000.2 999.9 0.0
27/05:00pm 30.4 31.4 25.9 77 3.2 W 32 44 17 24 1000.5 1000.2 0.0
27/04:34pm 30.8 32.4 25.8 74 3.6 W 28 46 15 25 1000.6 1000.3 0.0
27/04:30pm 31.0 33.2 26.0 74 3.6 W 26 43 14 23 1000.8 1000.5 0.0
27/04:12pm 31.3 32.9 26.3 75 3.6 W 30 48 16 26 1000.6 1000.3 0.0
27/04:00pm 31.2 33.3 26.5 76 3.4 W 28 43 15 23 1000.4 1000.1 0.0
27/03:33pm 31.8 33.5 25.9 71 4.2 W 28 46 15 25 1000.1 999.8 0.0
27/03:30pm 32.1 34.5 26.4 72 4.1 W 26 39 14 21 1000.1 999.8 0.0
27/03:02pm 32.6 33.9 25.2 65 5.2 W 28 48 15 26 1000.5 1000.2 0.0
27/03:00pm 32.7 34.2 25.0 64 5.5 W 26 41 14 22 1000.5 1000.0 0.0
27/02:40pm 33.5 33.7 24.7 60 6.2 W 32 50 17 27 1000.6 1000.3 0.0
27/02:30pm 33.7 34.0 24.8 59 6.3 W 32 48 17 26 1000.6 1000.3 0.0
27/02:01pm 33.8 34.8 24.7 59 6.4 W 28 50 15 27 1000.8 1000.5 0.0
27/02:00pm 34.1 35.4 24.7 58 6.6 W 26 44 14 24 1000.8 1000.5 0.0
27/01:46pm 33.7 34.9 25.1 60 6.1 W 28 46 15 25 1001.1 1000.8 0.0
27/01:30pm 32.7 34.5 25.5 66 5.1 W 26 39 14 21 1001.5 1001.2 0.0
27/01:00pm 33.2 35.7 26.0 66 5.2 W 24 39 13 21 1002.3 1002.0 0.0
27/12:30pm 33.2 35.8 25.5 64 5.5 W 22 41 12 22 1002.9 1002.6 0.0
27/12:00pm 32.8 34.7 25.6 66 5.1 WSW 26 35 14 19 1003.8 1003.3 0.0
27/11:30am 32.7 34.7 25.2 64 5.3 W 24 35 13 19 1004.4 1004.0 0.0
27/11:00am 32.5 34.2 25.3 66 5.1 W 26 35 14 19 1004.6 1004.2 0.0
27/10:30am 31.8 33.3 24.9 67 4.9 W 26 43 14 23 1005.0 1004.6 0.0
27/10:00am 31.6 33.6 25.2 69 4.5 W 24 39 13 21 1005.0 1004.6 0.0
27/09:30am 31.4 33.1 24.0 65 5.2 WSW 22 35 12 19 1005.0 1004.6 0.0
27/09:00am 31.2 32.5 24.1 66 5.0 SW 24 35 13 19 1005.4 1004.8 0.0
27/08:30am 30.8 33.3 24.7 70 4.3 SW 20 33 11 18 1005.7 1005.3 0.0
27/08:00am 29.6 31.6 24.0 72 3.9 WSW 20 33 11 18 1005.9 1005.5 0.0
27/07:30am 29.3 31.2 24.4 75 3.4 SW 22 32 12 17 1005.9 1005.5 0.0
27/07:00am 29.2 32.0 25.2 79 2.8 WSW 20 30 11 16 1005.6 1005.2 0.0
27/06:30am 28.8 32.4 25.6 83 2.3 WSW 17 26 9 14 1005.3 1004.9 0.0
27/06:00am 28.3 32.6 25.5 85 2.0 WSW 13 20 7 11 1005.2 1004.6 0.0
27/05:30am 28.5 32.3 25.3 83 2.3 WSW 15 20 8 11 1004.9 1004.5 0.0
27/05:00am 28.1 31.7 24.3 80 2.6 W 13 22 7 12 1004.9 1004.5 0.0
27/04:30am 27.8 31.3 23.6 78 2.9 WSW 11 19 6 10 1005.0 1004.6 0.0
27/04:00am 27.8 30.1 23.4 77 3.0 SW 17 24 9 13 1004.9 1004.5 0.0
27/03:30am 27.6 29.8 23.2 77 3.0 SW 17 26 9 14 1004.7 1004.3 0.0
27/03:00am 27.9 29.5 22.8 74 3.5 WSW 19 26 10 14 1004.7 1004.1 0.0
27/02:30am 27.9 30.0 23.1 75 3.3 WSW 17 24 9 13 1004.2 1003.8 0.0
27/02:00am 27.6 30.4 23.0 76 3.1 WSW 13 20 7 11 1004.0 1003.7 0.0
27/01:30am 27.7 29.1 22.9 75 3.3 SW 20 32 11 17 1004.4 1004.0 0.0
27/01:00am 28.0 29.4 22.9 74 3.5 WSW 20 30 11 16 1004.7 1004.3 0.0
27/12:30am 28.7 30.0 24.0 76 3.3 WSW 24 37 13 20 1004.8 1004.4 0.0
27/12:25am 28.9 29.4 24.0 75 3.4 WSW 28 46 15 25 1004.9 1004.5 0.0
27/12:00am 29.5 31.0 25.5 79 2.8 W 28 41 15 22 1004.5 1003.9 0.0
 
Date/Time
WST
Temp
°C
App
Temp
°C
Dew
Point
°C
Rel
Hum
%
Delta-T
°C
Wind Press
QNH
hPa
Press
MSL
hPa
Rain since
9am
mm
Dir  Spd
km/h
Gust
km/h
Spd
kts
Gust
kts
26/11:30pm 29.6 31.9 25.6 79 2.8 W 24 37 13 20 1004.9 1004.5 0.0
26/11:00pm 29.7 32.2 25.4 78 3.0 W 22 32 12 17 1005.5 1005.1 0.0
26/10:30pm 29.9 32.7 25.0 75 3.4 W 19 26 10 14 1005.9 1005.5 0.0
26/10:00pm 30.0 32.9 25.1 75 3.5 W 19 30 10 16 1006.4 1006.0 0.0
26/09:30pm 29.9 32.0 25.4 77 3.2 W 24 35 13 19 1006.4 1006.0 0.0
26/09:00pm 29.7 33.0 25.7 79 2.8 W 19 30 10 16 1006.1 1005.5 0.0
26/08:30pm 29.2 32.9 25.8 82 2.4 WSW 17 24 9 13 1006.0 1005.6 0.0
26/08:00pm 30.0 32.1 25.3 76 3.3 WSW 24 39 13 21 1005.4 1005.0 0.0
26/07:30pm 30.1 32.6 24.7 73 3.8 WSW 20 37 11 20 1006.0 1005.6 0.0
26/07:00pm 30.1 31.2 24.9 73 3.7 W 28 44 15 24 1005.2 1004.8 0.0
26/06:30pm 30.0 32.0 25.1 75 3.5 W 24 41 13 22 1004.9 1004.5 0.0
26/06:06pm 30.1 30.7 24.7 73 3.8 W 30 48 16 26 1004.4 1004.0 0.0
26/06:00pm 30.1 30.1 24.7 73 3.8 W 33 48 18 26 1004.2 1003.6 0.0
26/05:49pm 30.2 30.3 24.6 72 3.9 W 32 50 17 27 1003.8 1003.5 0.0
26/05:30pm 30.5 31.8 24.6 70 4.1 W 26 37 14 20 1004.2 1003.8 0.0
26/05:03pm 30.7 31.7 24.8 71 4.1 W 28 46 15 25 1003.5 1003.2 0.0
26/05:00pm 30.7 32.0 24.6 70 4.3 W 26 46 14 25 1003.4 1003.1 0.0
26/04:42pm 31.1 32.2 25.0 70 4.3 W 28 46 15 25 1002.9 1002.6 0.0
26/04:30pm 31.2 31.7 24.6 68 4.6 W 30 44 16 24 1003.1 1002.8 0.0
26/04:00pm 31.4 32.2 24.5 67 4.8 W 28 48 15 26 1002.9 1002.6 0.0
26/03:34pm 31.7 32.2 24.0 63 5.4 W 28 46 15 25 1003.2 1002.9 0.0
26/03:30pm 31.6 31.6 23.7 63 5.5 W 30 46 16 25 1003.2 1002.9 0.0
26/03:00pm 31.8 32.2 24.4 65 5.2 W 30 41 16 22 1003.4 1002.9 0.0
26/02:30pm 32.3 33.4 24.9 65 5.2 W 28 43 15 23 1003.8 1003.5 0.0
26/02:00pm 32.3 33.6 24.6 64 5.4 W 26 41 14 22 1004.3 1003.9 0.0
26/01:36pm 32.3 32.4 24.6 64 5.4 W 32 50 17 27 1004.3 1003.9 0.0
26/01:30pm 32.4 32.0 24.7 64 5.4 W 35 50 19 27 1004.3 1003.9 0.0

Other formats

Comma delimited format used in spreadsheet applications
http://www.bom.gov.au/fwo/IDW60801/IDW60801.95101.axf

JavaScript Object Notation format (JSON) in row-major order
http://www.bom.gov.au/fwo/IDW60801/IDW60801.95101.json

Data quality

Most of these data are generated automatically and are frequently updated. Quality checks on data are not normally performed. It is possible for incorrect values to appear. Refer to information at About Latest Weather Observations and please check the disclaimer before using these data.